Terminal Aerodrome Forecast
Issued by NWS

Home | Current Version | Previous Version | Text Only | Print | Product List | Glossary On
Versions: 1 2 3 4 5 6 7 8 9 10 11 12 13 14 15 16 17 18
000
FTUS41 KGYX 050520
TAFAUG
TAF
KAUG 050520Z 0506/0606 02007KT 5SM -RA BKN005 OVC010
     FM050800 02009KT 6SM -DZ BR OVC009
     FM051200 02010KT P6SM OVC012
     FM051500 02010G20KT P6SM OVC025
     FM060100 36010KT 5SM -RA OVC007=

USA.gov is the U.S. government's official web portal to all federal, state and local government web resources and services.